Time;durP1;ratioP1;P1;durP2;ratioP2;P2;SDS_P1;SDS_P2;PMS_P1;PMS_P2;Temp;Humidity;BMP_temperature;BMP_pressure;BME280_temperature;BME280_humidity;BME280_pressure;Samples;Min_cycle;Max_cycle;Signal;HPM_P1;HPM_P2
2022/12/31 00:00:41;;;;;;;18.27;5.13;;;;;;;;;;2081101;28;20033;-83
2022/12/31 00:02:00;;;;;;;16.45;4.15;;;;;;;;;;2079895;28;20522;-84
2022/12/31 00:03:19;;;;;;;22.67;4.22;;;;;;;;;;2077245;28;20052;-84
2022/12/31 00:04:38;;;;;;;16.00;4.10;;;;;;;;;;2077874;28;20112;-84
2022/12/31 00:05:56;;;;;;;19.67;4.72;;;;;;;;;;2080023;28;20025;-84
2022/12/31 00:07:15;;;;;;;22.60;4.93;;;;;;;;;;2076843;28;20082;-84
2022/12/31 00:08:34;;;;;;;10.73;3.95;;;;;;;;;;2080443;28;20106;-83
2022/12/31 00:09:53;;;;;;;18.15;4.88;;;;;;;;;;2077677;28;20030;-84
2022/12/31 00:11:12;;;;;;;15.75;4.05;;;;;;;;;;2076265;28;20034;-84
2022/12/31 00:12:30;;;;;;;16.80;4.10;;;;;;;;;;2077306;28;20029;-85
2022/12/31 00:13:49;;;;;;;19.58;4.60;;;;;;;;;;2075896;28;20030;-84
2022/12/31 00:15:08;;;;;;;15.20;4.75;;;;;;;;;;2079351;28;20756;-84
2022/12/31 00:16:37;;;;;;;18.02;5.03;;;;;;;;;;2107630;27;20137;-71
2022/12/31 00:17:56;;;;;;;13.45;4.60;;;;;;;;;;2107880;28;20498;-71
2022/12/31 00:19:14;;;;;;;16.25;4.53;;;;;;;;;;2108841;28;20017;-71
2022/12/31 00:20:33;;;;;;;17.13;4.80;;;;;;;;;;2107696;28;20426;-71
2022/12/31 00:21:52;;;;;;;16.17;4.22;;;;;;;;;;2108135;28;20119;-71
2022/12/31 00:23:11;;;;;;;26.25;6.50;;;;;;;;;;2106667;28;20404;-71
2022/12/31 00:24:30;;;;;;;20.27;4.68;;;;;;;;;;2107222;28;20036;-71
2022/12/31 00:25:49;;;;;;;13.95;4.70;;;;;;;;;;2107799;28;20041;-71
2022/12/31 00:27:08;;;;;;;14.55;5.13;;;;;;;;;;2106659;28;20450;-71
2022/12/31 00:28:27;;;;;;;15.15;4.55;;;;;;;;;;2107994;28;20043;-72
2022/12/31 00:29:46;;;;;;;12.55;4.40;;;;;;;;;;2110347;28;20016;-72
2022/12/31 00:31:13;;;;;;;20.88;4.65;;;;;;;;;;2110363;28;20023;-71
2022/12/31 00:32:32;;;;;;;21.85;4.60;;;;;;;;;;2109540;28;20446;-71
2022/12/31 00:33:51;;;;;;;20.13;5.20;;;;;;;;;;2109825;28;20071;-71
2022/12/31 00:35:10;;;;;;;10.73;3.92;;;;;;;;;;2110526;28;20024;-71
2022/12/31 00:36:31;;;;;;;16.25;5.13;;;;;;;;;;2111115;28;20410;-71
2022/12/31 00:37:50;;;;;;;14.38;4.45;;;;;;;;;;2108389;28;20036;-71
2022/12/31 00:39:09;;;;;;;18.15;4.72;;;;;;;;;;2109497;28;20577;-71
2022/12/31 00:40:28;;;;;;;17.70;5.18;;;;;;;;;;2109448;28;20028;-71
2022/12/31 00:41:47;;;;;;;17.35;5.43;;;;;;;;;;2110618;28;20054;-71
2022/12/31 00:43:06;;;;;;;10.60;4.57;;;;;;;;;;2108245;28;20444;-71
2022/12/31 00:44:25;;;;;;;14.15;4.60;;;;;;;;;;2105428;28;20028;-71
2022/12/31 00:45:44;;;;;;;12.30;4.00;;;;;;;;;;2108902;28;20035;-71
2022/12/31 00:47:03;;;;;;;7.70;3.58;;;;;;;;;;2111022;28;20476;-71
2022/12/31 00:48:22;;;;;;;17.83;4.10;;;;;;;;;;2107502;28;20039;-71
2022/12/31 00:49:41;;;;;;;18.55;4.50;;;;;;;;;;2109534;28;20028;-71
2022/12/31 00:51:01;;;;;;;18.55;5.32;;;;;;;;;;2107231;28;20505;-71
2022/12/31 00:52:20;;;;;;;16.15;4.85;;;;;;;;;;2109625;28;20032;-71
2022/12/31 00:53:39;;;;;;;15.98;4.43;;;;;;;;;;2108134;28;20036;-71
2022/12/31 00:54:58;;;;;;;16.17;5.70;;;;;;;;;;2109134;28;20036;-71
2022/12/31 00:56:19;;;;;;;13.80;4.43;;;;;;;;;;2110950;28;20028;-71
2022/12/31 00:57:38;;;;;;;22.40;5.07;;;;;;;;;;2109632;28;20064;-71
2022/12/31 00:58:58;;;;;;;19.67;5.22;;;;;;;;;;2109554;28;20060;-71
2022/12/31 01:00:17;;;;;;;16.45;4.95;;;;;;;;;;2110300;28;20032;-71
2022/12/31 01:01:37;;;;;;;15.23;4.82;;;;;;;;;;2109524;28;20024;-71
2022/12/31 01:02:56;;;;;;;17.27;4.88;;;;;;;;;;2109381;28;20032;-72
2022/12/31 01:04:18;;;;;;;21.85;4.63;;;;;;;;;;2108539;28;20141;-71
2022/12/31 01:05:37;;;;;;;21.88;5.20;;;;;;;;;;2115537;28;20019;-71
2022/12/31 01:06:56;;;;;;;20.30;4.88;;;;;;;;;;2107592;28;20458;-71
2022/12/31 01:08:15;;;;;;;11.52;4.40;;;;;;;;;;2107460;28;20106;-71
2022/12/31 01:09:34;;;;;;;17.40;5.65;;;;;;;;;;2110073;28;20032;-71
2022/12/31 01:12:31;;;;;;;20.42;5.18;;;;;;;;;;2107601;28;20032;-71
2022/12/31 01:13:51;;;;;;;19.63;5.13;;;;;;;;;;2107718;28;20028;-71
2022/12/31 01:15:10;;;;;;;15.00;6.00;;;;;;;;;;2107880;28;20016;-71
2022/12/31 01:16:31;;;;;;;17.60;5.00;;;;;;;;;;2104404;28;20044;-71
2022/12/31 01:17:50;;;;;;;12.02;4.90;;;;;;;;;;2107968;28;20036;-71
2022/12/31 01:19:10;;;;;;;16.98;4.45;;;;;;;;;;2107726;28;20032;-72
2022/12/31 01:20:29;;;;;;;18.85;5.28;;;;;;;;;;2108838;28;20036;-71
2022/12/31 01:21:49;;;;;;;18.88;5.43;;;;;;;;;;2106576;28;20032;-71
2022/12/31 01:23:09;;;;;;;15.15;5.68;;;;;;;;;;2107640;28;20476;-71
2022/12/31 01:24:28;;;;;;;13.73;4.50;;;;;;;;;;2108398;28;20076;-71
2022/12/31 01:25:52;;;;;;;24.73;4.95;;;;;;;;;;2107807;28;20028;-71
2022/12/31 01:27:11;;;;;;;17.58;4.97;;;;;;;;;;2105409;28;20516;-71
2022/12/31 01:28:30;;;;;;;15.52;5.03;;;;;;;;;;2099842;28;20067;-71
2022/12/31 01:29:49;;;;;;;15.75;5.35;;;;;;;;;;2102893;28;20028;-71
2022/12/31 01:31:11;;;;;;;22.45;4.88;;;;;;;;;;2102110;28;20509;-71
2022/12/31 01:32:30;;;;;;;23.90;5.25;;;;;;;;;;2102205;28;20028;-71
2022/12/31 01:33:50;;;;;;;19.23;4.78;;;;;;;;;;2103082;28;20396;-71
2022/12/31 01:35:09;;;;;;;16.00;4.53;;;;;;;;;;2103927;28;20028;-71
2022/12/31 01:36:29;;;;;;;11.82;4.53;;;;;;;;;;2102462;28;20021;-71
2022/12/31 01:37:48;;;;;;;12.77;4.70;;;;;;;;;;2102003;28;20028;-72
2022/12/31 01:39:07;;;;;;;15.45;4.63;;;;;;;;;;2100246;28;20060;-71
2022/12/31 01:40:26;;;;;;;18.15;4.88;;;;;;;;;;2103055;28;20024;-71
2022/12/31 01:41:46;;;;;;;14.63;4.60;;;;;;;;;;2103831;28;20031;-71
2022/12/31 01:43:13;;;;;;;17.58;4.45;;;;;;;;;;2101931;28;20439;-71
2022/12/31 01:44:32;;;;;;;16.55;5.32;;;;;;;;;;2102448;28;20027;-71
2022/12/31 01:45:52;;;;;;;13.05;3.85;;;;;;;;;;2099849;28;20032;-71
2022/12/31 01:47:14;;;;;;;14.68;4.70;;;;;;;;;;2102339;28;20029;-71
2022/12/31 01:48:33;;;;;;;15.80;4.43;;;;;;;;;;2101771;28;20020;-71
2022/12/31 01:49:55;;;;;;;12.85;4.28;;;;;;;;;;2098583;28;20040;-71
2022/12/31 01:51:14;;;;;;;14.63;4.13;;;;;;;;;;2097757;28;20020;-71
2022/12/31 01:52:39;;;;;;;13.63;4.82;;;;;;;;;;2103181;28;20036;-71
2022/12/31 01:53:58;;;;;;;20.80;5.38;;;;;;;;;;2101565;28;20029;-72
2022/12/31 01:55:20;;;;;;;14.32;4.80;;;;;;;;;;2101038;28;20107;-71
2022/12/31 01:56:40;;;;;;;14.20;3.88;;;;;;;;;;2101509;28;20028;-71
2022/12/31 01:58:05;;;;;;;14.35;4.32;;;;;;;;;;2102822;28;20120;-71
2022/12/31 01:59:27;;;;;;;15.60;4.75;;;;;;;;;;2101301;28;20480;-71
2022/12/31 02:00:46;;;;;;;14.68;4.47;;;;;;;;;;2104536;28;20122;-71
2022/12/31 02:02:05;;;;;;;11.80;4.30;;;;;;;;;;2102507;28;20056;-71
2022/12/31 02:03:25;;;;;;;15.65;4.50;;;;;;;;;;2099232;28;20039;-71
2022/12/31 02:04:45;;;;;;;11.15;4.10;;;;;;;;;;2101934;28;20071;-71
2022/12/31 02:06:15;;;;;;;13.30;3.95;;;;;;;;;;2103453;28;20059;-71
2022/12/31 02:07:34;;;;;;;10.50;3.83;;;;;;;;;;2101196;28;20065;-71
2022/12/31 02:08:55;;;;;;;9.93;3.75;;;;;;;;;;2102216;28;20116;-71
2022/12/31 02:10:14;;;;;;;13.27;3.60;;;;;;;;;;2101182;28;20036;-71
2022/12/31 02:11:35;;;;;;;10.85;3.90;;;;;;;;;;2098893;28;20025;-71
2022/12/31 02:12:54;;;;;;;16.20;5.13;;;;;;;;;;2101724;28;20036;-71
2022/12/31 02:14:15;;;;;;;14.65;3.70;;;;;;;;;;2102039;28;20032;-71
2022/12/31 02:15:34;;;;;;;14.68;4.22;;;;;;;;;;2102381;28;20561;-71
2022/12/31 02:17:08;;;;;;;17.33;4.05;;;;;;;;;;2111422;28;20056;-71
2022/12/31 02:18:30;;;;;;;13.48;4.43;;;;;;;;;;2112224;28;20015;-71
2022/12/31 02:20:05;;;;;;;15.25;4.18;;;;;;;;;;2108389;28;20039;-73
2022/12/31 02:21:23;;;;;;;16.23;4.30;;;;;;;;;;2101855;28;20500;-71
2022/12/31 02:23:01;;;;;;;17.17;3.85;;;;;;;;;;2106479;28;20480;-71
2022/12/31 02:24:23;;;;;;;14.10;3.67;;;;;;;;;;2110166;28;20016;-71
2022/12/31 02:25:57;;;;;;;19.23;4.03;;;;;;;;;;2112198;28;20028;-71
2022/12/31 02:27:22;;;;;;;15.73;3.80;;;;;;;;;;2103664;28;20020;-70
2022/12/31 02:28:51;;;;;;;12.60;3.75;;;;;;;;;;2108496;28;20028;-70
2022/12/31 02:30:17;;;;;;;17.58;4.80;;;;;;;;;;2100876;28;20059;-71
2022/12/31 02:31:56;;;;;;;13.15;3.63;;;;;;;;;;2111308;28;20028;-70
2022/12/31 02:33:18;;;;;;;16.48;3.88;;;;;;;;;;2111756;28;20027;-70
2022/12/31 02:34:42;;;;;;;16.48;4.70;;;;;;;;;;2102245;28;20028;-70
2022/12/31 02:36:04;;;;;;;13.80;3.60;;;;;;;;;;2110307;28;20162;-70
2022/12/31 02:37:23;;;;;;;13.57;4.45;;;;;;;;;;2112806;28;20027;-70
2022/12/31 02:38:44;;;;;;;13.40;3.90;;;;;;;;;;2111144;28;20475;-70
2022/12/31 02:40:06;;;;;;;15.95;4.00;;;;;;;;;;2111074;28;20035;-71
2022/12/31 02:43:03;;;;;;;14.20;4.00;;;;;;;;;;2111101;28;20110;-71
2022/12/31 02:44:29;;;;;;;11.80;4.28;;;;;;;;;;2112576;28;20028;-73
2022/12/31 02:45:57;;;;;;;20.42;4.20;;;;;;;;;;2112116;28;20496;-71
2022/12/31 02:47:21;;;;;;;16.35;4.28;;;;;;;;;;2112597;28;20035;-70
2022/12/31 02:48:52;;;;;;;11.70;3.83;;;;;;;;;;2112211;28;20058;-70
2022/12/31 02:50:17;;;;;;;10.93;4.43;;;;;;;;;;2111530;28;20040;-70
2022/12/31 02:51:47;;;;;;;15.45;4.45;;;;;;;;;;2111991;28;20036;-70
2022/12/31 02:53:12;;;;;;;12.70;3.72;;;;;;;;;;2110641;28;20473;-70
2022/12/31 02:54:57;;;;;;;16.33;4.03;;;;;;;;;;2111867;28;20044;-70
2022/12/31 02:56:16;;;;;;;12.32;3.80;;;;;;;;;;2111194;28;20396;-71
2022/12/31 02:57:41;;;;;;;11.35;3.83;;;;;;;;;;2111259;28;20019;-70
2022/12/31 03:02:31;;;;;;;9.57;3.63;;;;;;;;;;2112389;28;20035;-71
2022/12/31 03:04:30;;;;;;;16.13;4.32;;;;;;;;;;2111243;28;20501;-70
2022/12/31 03:05:30;;;;;;;12.55;3.30;;;;;;;;;;2111417;28;20392;-70
2022/12/31 03:06:50;;;;;;;8.00;3.53;;;;;;;;;;2112206;28;20115;-71
2022/12/31 03:08:09;;;;;;;12.07;3.40;;;;;;;;;;2111087;28;20480;-70
2022/12/31 03:09:28;;;;;;;7.40;3.00;;;;;;;;;;2112670;28;20039;-70
2022/12/31 03:10:47;;;;;;;10.65;3.55;;;;;;;;;;2111410;28;20035;-70
2022/12/31 03:14:05;;;;;;;8.05;2.95;;;;;;;;;;2083466;28;20537;-70
2022/12/31 03:15:24;;;;;;;9.05;3.20;;;;;;;;;;2080981;28;20545;-70
2022/12/31 03:16:43;;;;;;;7.45;2.55;;;;;;;;;;2075810;28;20041;-71
2022/12/31 03:18:04;;;;;;;8.25;2.95;;;;;;;;;;2080502;28;20029;-70
2022/12/31 03:22:40;;;;;;;8.75;2.72;;;;;;;;;;2110427;28;20064;-70
2022/12/31 03:25:39;;;;;;;11.32;3.42;;;;;;;;;;2109450;28;20457;-71
2022/12/31 03:26:58;;;;;;;7.03;2.95;;;;;;;;;;2113168;28;20020;-71
2022/12/31 03:28:19;;;;;;;5.18;3.17;;;;;;;;;;2112257;28;20103;-70
2022/12/31 03:29:38;;;;;;;9.35;3.22;;;;;;;;;;2112541;28;20106;-70
2022/12/31 03:30:58;;;;;;;5.20;2.60;;;;;;;;;;2100322;28;20397;-71
2022/12/31 03:32:17;;;;;;;6.32;2.90;;;;;;;;;;2099949;28;20041;-71
2022/12/31 03:33:38;;;;;;;6.38;3.10;;;;;;;;;;2097707;28;20028;-70
2022/12/31 03:34:57;;;;;;;7.57;2.85;;;;;;;;;;2108875;28;20065;-71
2022/12/31 03:36:16;;;;;;;8.10;3.03;;;;;;;;;;2110763;28;20024;-70
2022/12/31 03:37:35;;;;;;;9.65;2.67;;;;;;;;;;2111833;28;20028;-70
2022/12/31 03:38:54;;;;;;;5.85;3.17;;;;;;;;;;2113240;28;20024;-70
2022/12/31 03:40:13;;;;;;;7.72;2.97;;;;;;;;;;2112857;28;20019;-70
2022/12/31 03:41:32;;;;;;;9.27;2.85;;;;;;;;;;2101234;28;20041;-70
2022/12/31 03:42:51;;;;;;;9.88;3.40;;;;;;;;;;2108142;28;20032;-71
2022/12/31 03:44:10;;;;;;;10.85;3.67;;;;;;;;;;2112136;28;20024;-71
2022/12/31 03:45:29;;;;;;;5.07;2.80;;;;;;;;;;2102980;28;20028;-70
2022/12/31 03:46:48;;;;;;;11.05;2.78;;;;;;;;;;2106801;28;20528;-70
2022/12/31 03:48:08;;;;;;;6.68;2.55;;;;;;;;;;2112822;28;20107;-71
2022/12/31 03:49:27;;;;;;;9.52;2.40;;;;;;;;;;2111428;28;20043;-70
2022/12/31 03:50:46;;;;;;;6.38;2.35;;;;;;;;;;2111486;28;20059;-70
2022/12/31 03:52:05;;;;;;;11.02;3.60;;;;;;;;;;2111225;28;20043;-71
2022/12/31 03:53:24;;;;;;;9.82;3.30;;;;;;;;;;2100679;28;20024;-70
2022/12/31 03:54:43;;;;;;;7.95;2.78;;;;;;;;;;2098385;28;20430;-71
2022/12/31 03:56:02;;;;;;;6.30;2.47;;;;;;;;;;2107943;28;20035;-70
2022/12/31 03:57:21;;;;;;;10.90;2.97;;;;;;;;;;2111683;28;20024;-70
2022/12/31 03:58:40;;;;;;;5.28;3.03;;;;;;;;;;2109257;28;20483;-71
2022/12/31 03:59:59;;;;;;;5.03;2.60;;;;;;;;;;2112081;28;20040;-71
2022/12/31 04:01:18;;;;;;;6.68;2.65;;;;;;;;;;2101079;28;20024;-71
2022/12/31 04:02:37;;;;;;;5.32;2.92;;;;;;;;;;2101540;28;20020;-71
2022/12/31 04:03:56;;;;;;;7.15;2.67;;;;;;;;;;2108388;28;20024;-71
2022/12/31 04:05:15;;;;;;;4.57;2.22;;;;;;;;;;2112296;28;20562;-71
2022/12/31 04:06:34;;;;;;;6.13;2.75;;;;;;;;;;2101343;28;20486;-71
2022/12/31 04:07:54;;;;;;;4.68;2.58;;;;;;;;;;2100927;28;20143;-71
2022/12/31 04:09:13;;;;;;;5.25;2.50;;;;;;;;;;2108646;28;20114;-70
2022/12/31 04:10:32;;;;;;;7.63;2.78;;;;;;;;;;2101100;28;20497;-71
2022/12/31 04:11:51;;;;;;;7.30;2.53;;;;;;;;;;2100087;28;20509;-71
2022/12/31 04:13:10;;;;;;;7.10;2.58;;;;;;;;;;2107271;28;20039;-71
2022/12/31 04:14:29;;;;;;;6.00;2.83;;;;;;;;;;2112806;28;20027;-71
2022/12/31 04:15:49;;;;;;;9.88;2.47;;;;;;;;;;2102241;28;20043;-71
2022/12/31 04:17:08;;;;;;;6.63;3.70;;;;;;;;;;2107086;28;20479;-71
2022/12/31 04:18:27;;;;;;;10.18;2.88;;;;;;;;;;2102888;28;20492;-72
2022/12/31 04:19:46;;;;;;;8.38;3.22;;;;;;;;;;2107507;28;20024;-71
2022/12/31 04:21:04;;;;;;;7.65;2.88;;;;;;;;;;2112059;28;20023;-71
2022/12/31 04:22:24;;;;;;;6.97;2.95;;;;;;;;;;2113182;28;20122;-71
2022/12/31 04:23:43;;;;;;;13.00;3.17;;;;;;;;;;2102307;28;20020;-71
2022/12/31 04:25:02;;;;;;;4.78;2.78;;;;;;;;;;2107514;28;20024;-71
2022/12/31 04:26:21;;;;;;;4.85;3.15;;;;;;;;;;2111897;28;20028;-71
2022/12/31 04:27:42;;;;;;;9.77;3.50;;;;;;;;;;2112159;28;20048;-71
2022/12/31 04:29:01;;;;;;;10.57;2.80;;;;;;;;;;2111146;28;20032;-71
2022/12/31 04:30:20;;;;;;;10.02;3.15;;;;;;;;;;2100613;28;20520;-71
2022/12/31 04:31:39;;;;;;;9.07;3.33;;;;;;;;;;2107026;28;20028;-71
2022/12/31 04:32:58;;;;;;;8.40;3.42;;;;;;;;;;2110071;28;20028;-71
2022/12/31 04:34:17;;;;;;;10.98;3.88;;;;;;;;;;2111957;28;20032;-72
2022/12/31 04:35:36;;;;;;;5.93;3.28;;;;;;;;;;2112090;28;20507;-71
2022/12/31 04:36:55;;;;;;;9.30;2.60;;;;;;;;;;2110430;28;20040;-73
2022/12/31 04:38:14;;;;;;;6.93;2.58;;;;;;;;;;2100833;28;20029;-71
2022/12/31 04:39:33;;;;;;;6.28;2.70;;;;;;;;;;2103173;28;20449;-72
2022/12/31 04:41:37;;;;;;;9.85;2.92;;;;;;;;;;2108795;28;20035;-70
2022/12/31 04:42:31;;;;;;;11.00;2.90;;;;;;;;;;2107575;28;20475;-71
2022/12/31 04:43:50;;;;;;;7.15;2.85;;;;;;;;;;2111517;28;20032;-70
2022/12/31 04:45:09;;;;;;;6.45;2.80;;;;;;;;;;2112335;28;20090;-71
2022/12/31 04:46:30;;;;;;;9.65;2.67;;;;;;;;;;2111498;28;20035;-71
2022/12/31 04:47:49;;;;;;;8.70;3.20;;;;;;;;;;2112122;28;20114;-72
2022/12/31 04:49:08;;;;;;;9.63;3.28;;;;;;;;;;2103006;28;20032;-71
2022/12/31 04:50:27;;;;;;;10.27;3.45;;;;;;;;;;2098405;28;20032;-70
2022/12/31 04:51:46;;;;;;;6.30;3.10;;;;;;;;;;2105689;28;20024;-71
2022/12/31 04:53:05;;;;;;;8.25;3.60;;;;;;;;;;2107690;28;20028;-71
2022/12/31 04:54:24;;;;;;;8.98;2.83;;;;;;;;;;2109190;28;20032;-71
2022/12/31 04:55:44;;;;;;;6.38;2.80;;;;;;;;;;2108695;28;20028;-72
2022/12/31 04:57:03;;;;;;;11.80;3.35;;;;;;;;;;2109277;28;20126;-71
2022/12/31 04:58:22;;;;;;;8.40;3.13;;;;;;;;;;2111266;28;20028;-71
2022/12/31 04:59:41;;;;;;;12.95;3.95;;;;;;;;;;2110396;28;20036;-71
2022/12/31 05:01:00;;;;;;;8.63;3.85;;;;;;;;;;2111067;28;20031;-71
2022/12/31 05:02:19;;;;;;;11.43;2.95;;;;;;;;;;2099578;28;20459;-71
2022/12/31 05:03:38;;;;;;;7.70;3.13;;;;;;;;;;2099093;28;20508;-70
2022/12/31 05:04:57;;;;;;;6.40;3.25;;;;;;;;;;2109086;28;20028;-70
2022/12/31 05:06:17;;;;;;;9.85;3.17;;;;;;;;;;2113520;28;20484;-70
2022/12/31 05:07:36;;;;;;;8.00;3.08;;;;;;;;;;2112811;28;20063;-71
2022/12/31 05:08:55;;;;;;;10.85;3.65;;;;;;;;;;2113847;28;20525;-71
2022/12/31 05:10:14;;;;;;;12.02;3.45;;;;;;;;;;2112383;28;20032;-70
2022/12/31 05:11:34;;;;;;;8.45;2.90;;;;;;;;;;2104135;28;20024;-71
2022/12/31 05:12:53;;;;;;;9.38;3.03;;;;;;;;;;2107707;28;20035;-71
2022/12/31 05:14:12;;;;;;;7.50;2.83;;;;;;;;;;2113601;28;20040;-71
2022/12/31 05:15:31;;;;;;;7.55;2.70;;;;;;;;;;2112672;28;20035;-70
2022/12/31 05:16:50;;;;;;;7.10;2.72;;;;;;;;;;2113459;28;20115;-70
2022/12/31 05:18:09;;;;;;;9.18;2.90;;;;;;;;;;2112733;28;20023;-71
2022/12/31 05:19:28;;;;;;;5.80;2.45;;;;;;;;;;2113117;28;20020;-70
2022/12/31 05:20:47;;;;;;;13.55;3.65;;;;;;;;;;2110449;28;20035;-71
2022/12/31 05:23:44;;;;;;;6.53;2.30;;;;;;;;;;2112287;28;20028;-70
2022/12/31 05:25:03;;;;;;;5.15;2.30;;;;;;;;;;2111612;28;20076;-71
2022/12/31 05:26:22;;;;;;;4.22;2.15;;;;;;;;;;2112650;28;20031;-71
2022/12/31 05:27:41;;;;;;;8.38;2.83;;;;;;;;;;2111554;28;20118;-71
2022/12/31 05:29:00;;;;;;;6.65;2.35;;;;;;;;;;2112792;28;20043;-71
2022/12/31 05:30:20;;;;;;;8.38;2.40;;;;;;;;;;2113363;28;20032;-71
2022/12/31 05:31:39;;;;;;;4.50;2.20;;;;;;;;;;2112086;28;20429;-70
2022/12/31 05:32:58;;;;;;;7.32;2.22;;;;;;;;;;2102030;28;20468;-70
2022/12/31 05:34:17;;;;;;;8.52;2.67;;;;;;;;;;2108915;28;20110;-71
2022/12/31 05:35:36;;;;;;;6.28;2.42;;;;;;;;;;2103857;28;20067;-72
2022/12/31 05:36:54;;;;;;;11.32;2.72;;;;;;;;;;2109297;28;20039;-70
2022/12/31 05:38:13;;;;;;;8.90;2.17;;;;;;;;;;2111039;28;20027;-71
2022/12/31 05:39:32;;;;;;;4.57;1.85;;;;;;;;;;2113728;28;21326;-71
2022/12/31 05:41:01;;;;;;;6.07;2.28;;;;;;;;;;2112492;28;20039;-71
2022/12/31 05:42:21;;;;;;;7.07;2.85;;;;;;;;;;2113154;28;20087;-71
2022/12/31 05:43:39;;;;;;;5.90;2.78;;;;;;;;;;2111781;28;20019;-71
2022/12/31 05:44:58;;;;;;;9.30;2.80;;;;;;;;;;2112892;28;20023;-70
2022/12/31 05:46:17;;;;;;;6.32;2.03;;;;;;;;;;2112330;28;20027;-70
2022/12/31 05:47:36;;;;;;;6.82;2.70;;;;;;;;;;2105086;28;20036;-71
2022/12/31 05:48:55;;;;;;;4.53;2.22;;;;;;;;;;2101650;28;20316;-71
2022/12/31 05:50:14;;;;;;;6.20;2.28;;;;;;;;;;2109238;28;20019;-71
2022/12/31 05:51:33;;;;;;;7.82;2.47;;;;;;;;;;2112598;28;20485;-70
2022/12/31 05:52:52;;;;;;;5.53;2.40;;;;;;;;;;2110961;28;20036;-71
2022/12/31 05:54:11;;;;;;;4.32;1.88;;;;;;;;;;2112310;28;20044;-71
2022/12/31 05:55:30;;;;;;;4.07;1.80;;;;;;;;;;2110707;28;20052;-70
2022/12/31 05:56:49;;;;;;;7.85;2.00;;;;;;;;;;2112940;28;20067;-70
2022/12/31 05:58:08;;;;;;;4.10;2.35;;;;;;;;;;2111407;28;20036;-70
2022/12/31 05:59:27;;;;;;;4.88;2.40;;;;;;;;;;2110948;28;20407;-71
2022/12/31 06:00:46;;;;;;;5.28;2.08;;;;;;;;;;2101939;28;20040;-71
2022/12/31 06:02:05;;;;;;;4.13;2.15;;;;;;;;;;2107982;28;20042;-71
2022/12/31 06:03:24;;;;;;;2.63;1.45;;;;;;;;;;2110990;28;20023;-71
2022/12/31 06:04:43;;;;;;;6.10;2.10;;;;;;;;;;2103436;28;20029;-71
2022/12/31 06:06:01;;;;;;;5.05;2.03;;;;;;;;;;2109818;28;20031;-71
2022/12/31 06:07:20;;;;;;;4.35;1.70;;;;;;;;;;2112328;28;20028;-71
2022/12/31 06:08:39;;;;;;;5.72;2.40;;;;;;;;;;2111264;28;20044;-71
2022/12/31 06:09:58;;;;;;;7.10;2.25;;;;;;;;;;2112742;28;20040;-71
2022/12/31 06:11:17;;;;;;;4.90;1.65;;;;;;;;;;2112840;28;20028;-71
2022/12/31 06:12:36;;;;;;;4.30;2.00;;;;;;;;;;2111845;28;20500;-71
2022/12/31 06:13:55;;;;;;;5.15;2.22;;;;;;;;;;2111202;28;20027;-71
2022/12/31 06:15:14;;;;;;;7.00;2.30;;;;;;;;;;2110915;28;20028;-72
2022/12/31 06:16:33;;;;;;;2.67;1.63;;;;;;;;;;2110509;28;20491;-71
2022/12/31 06:17:51;;;;;;;4.50;1.55;;;;;;;;;;2111488;28;20036;-70
2022/12/31 06:19:10;;;;;;;7.20;2.30;;;;;;;;;;2110898;28;20050;-71
2022/12/31 06:20:29;;;;;;;2.22;1.90;;;;;;;;;;2100193;28;20024;-71
2022/12/31 06:21:48;;;;;;;4.55;1.63;;;;;;;;;;2098762;28;20697;-71
2022/12/31 06:23:08;;;;;;;5.80;1.67;;;;;;;;;;2105648;28;20111;-71
2022/12/31 06:24:27;;;;;;;3.63;1.90;;;;;;;;;;2111703;28;20424;-70
2022/12/31 06:25:46;;;;;;;5.90;1.83;;;;;;;;;;2109561;28;20032;-71
2022/12/31 06:27:05;;;;;;;2.42;1.27;;;;;;;;;;2110511;28;20023;-71
2022/12/31 06:28:24;;;;;;;5.47;1.90;;;;;;;;;;2111247;28;20103;-71
2022/12/31 06:29:44;;;;;;;4.85;1.92;;;;;;;;;;2112916;28;21393;-71
2022/12/31 06:31:04;;;;;;;4.97;1.85;;;;;;;;;;2112696;28;20020;-71
2022/12/31 06:32:23;;;;;;;3.45;1.58;;;;;;;;;;2102543;28;20492;-71
2022/12/31 06:33:42;;;;;;;3.53;1.70;;;;;;;;;;2104799;28;20504;-71
2022/12/31 06:35:00;;;;;;;4.65;2.03;;;;;;;;;;2112038;28;20027;-71
2022/12/31 06:36:20;;;;;;;6.32;1.65;;;;;;;;;;2101686;28;20040;-71
2022/12/31 06:37:39;;;;;;;2.65;1.80;;;;;;;;;;2107336;28;20028;-71
2022/12/31 06:38:58;;;;;;;3.83;2.08;;;;;;;;;;2109115;28;20025;-71
2022/12/31 06:40:17;;;;;;;3.83;1.80;;;;;;;;;;2100464;28;20032;-71
2022/12/31 06:41:36;;;;;;;8.57;2.13;;;;;;;;;;2107733;28;20027;-70
2022/12/31 06:42:55;;;;;;;2.45;1.35;;;;;;;;;;2110855;28;20046;-71
2022/12/31 06:44:14;;;;;;;3.50;1.60;;;;;;;;;;2111785;28;20036;-70
2022/12/31 06:45:33;;;;;;;5.45;1.95;;;;;;;;;;2113371;28;20031;-71
2022/12/31 06:46:52;;;;;;;8.63;2.13;;;;;;;;;;2110645;28;20505;-71
2022/12/31 06:48:11;;;;;;;4.13;1.48;;;;;;;;;;2109583;28;20115;-71
2022/12/31 06:49:30;;;;;;;3.72;1.60;;;;;;;;;;2109828;28;20040;-71
2022/12/31 06:50:49;;;;;;;2.92;1.40;;;;;;;;;;2111896;28;20552;-71
2022/12/31 06:52:08;;;;;;;5.32;1.73;;;;;;;;;;2101917;28;20499;-71
2022/12/31 06:53:27;;;;;;;6.32;1.85;;;;;;;;;;2105303;28;20031;-71
2022/12/31 06:54:46;;;;;;;4.80;1.65;;;;;;;;;;2101309;28;20032;-70
2022/12/31 06:56:12;;;;;;;7.47;2.17;;;;;;;;;;2098624;28;20032;-71
2022/12/31 06:57:31;;;;;;;5.93;1.40;;;;;;;;;;2109001;28;20043;-71
2022/12/31 06:58:51;;;;;;;4.47;1.80;;;;;;;;;;2111968;28;20484;-71
2022/12/31 07:00:10;;;;;;;4.88;1.15;;;;;;;;;;2102475;28;20097;-71
2022/12/31 07:01:32;;;;;;;4.38;1.70;;;;;;;;;;2099923;28;20024;-71
2022/12/31 07:03:00;;;;;;;5.30;1.58;;;;;;;;;;2108634;28;20135;-71
2022/12/31 07:04:34;;;;;;;4.47;1.52;;;;;;;;;;2111293;28;20444;-70
2022/12/31 07:06:13;;;;;;;3.72;1.63;;;;;;;;;;2112079;28;20028;-71
2022/12/31 07:07:48;;;;;;;5.63;1.67;;;;;;;;;;2112699;28;20073;-71
2022/12/31 07:09:09;;;;;;;6.30;1.50;;;;;;;;;;2108601;28;20110;-71
2022/12/31 07:10:51;;;;;;;4.63;1.83;;;;;;;;;;2111726;28;20032;-71
2022/12/31 07:12:25;;;;;;;7.60;1.90;;;;;;;;;;2112051;28;20098;-71
2022/12/31 07:14:03;;;;;;;5.32;1.33;;;;;;;;;;2111891;28;20020;-71
2022/12/31 07:15:31;;;;;;;5.75;1.50;;;;;;;;;;2102886;28;20024;-72
2022/12/31 07:16:50;;;;;;;6.07;1.88;;;;;;;;;;2109989;28;20494;-71
2022/12/31 07:18:18;;;;;;;6.45;1.73;;;;;;;;;;2102272;28;20183;-71
2022/12/31 07:19:46;;;;;;;6.38;1.42;;;;;;;;;;2109241;28;20023;-72
2022/12/31 07:21:13;;;;;;;4.57;1.25;;;;;;;;;;2112608;28;20400;-71
2022/12/31 07:22:32;;;;;;;6.03;1.80;;;;;;;;;;2112189;28;20098;-71
2022/12/31 07:23:51;;;;;;;6.32;1.88;;;;;;;;;;2111771;28;20023;-71
2022/12/31 07:25:14;;;;;;;5.88;1.77;;;;;;;;;;2111634;28;20024;-71
2022/12/31 07:26:52;;;;;;;2.80;1.40;;;;;;;;;;2111325;28;20039;-71
2022/12/31 07:28:11;;;;;;;5.72;1.13;;;;;;;;;;2102447;28;20404;-71
2022/12/31 07:29:29;;;;;;;4.70;1.55;;;;;;;;;;2097917;28;20114;-71
2022/12/31 07:31:09;;;;;;;7.57;1.70;;;;;;;;;;2105747;28;20039;-72
2022/12/31 07:32:48;;;;;;;5.70;1.45;;;;;;;;;;2111867;28;20031;-71
2022/12/31 07:34:30;;;;;;;5.95;1.70;;;;;;;;;;2111938;28;20102;-71
2022/12/31 07:35:49;;;;;;;3.85;1.52;;;;;;;;;;2072628;28;20038;-71
2022/12/31 07:37:25;;;;;;;3.85;1.40;;;;;;;;;;2111555;28;20430;-71
2022/12/31 07:38:53;;;;;;;3.63;1.45;;;;;;;;;;2111438;28;20020;-71
2022/12/31 07:40:23;;;;;;;6.57;1.95;;;;;;;;;;2111411;28;20023;-71
2022/12/31 07:41:45;;;;;;;5.10;1.27;;;;;;;;;;2112289;28;20035;-71
2022/12/31 07:43:10;;;;;;;7.50;1.52;;;;;;;;;;2110820;28;20032;-71
2022/12/31 07:44:48;;;;;;;7.60;2.08;;;;;;;;;;2112333;28;20023;-73
2022/12/31 07:46:26;;;;;;;17.45;1.55;;;;;;;;;;2112741;28;20426;-71
2022/12/31 07:47:45;;;;;;;4.90;1.60;;;;;;;;;;2111601;28;20051;-72
2022/12/31 07:49:08;;;;;;;6.72;1.55;;;;;;;;;;2112133;28;20028;-71
2022/12/31 07:50:27;;;;;;;5.32;1.42;;;;;;;;;;2111466;28;20031;-71
2022/12/31 07:51:46;;;;;;;5.80;1.58;;;;;;;;;;2102856;28;20412;-71
2022/12/31 07:53:05;;;;;;;5.10;1.52;;;;;;;;;;2106716;28;20062;-71
2022/12/31 07:54:24;;;;;;;6.53;1.63;;;;;;;;;;2111665;28;20037;-71
2022/12/31 07:55:43;;;;;;;5.57;1.15;;;;;;;;;;2112836;28;20031;-71
2022/12/31 07:57:02;;;;;;;5.95;1.58;;;;;;;;;;2110069;28;20035;-72
2022/12/31 07:58:24;;;;;;;10.18;1.90;;;;;;;;;;2109286;28;20027;-71
2022/12/31 07:59:52;;;;;;;7.75;2.05;;;;;;;;;;2103559;28;20024;-71
2022/12/31 08:01:13;;;;;;;4.72;1.38;;;;;;;;;;2109450;28;20500;-71
2022/12/31 08:02:42;;;;;;;5.95;1.42;;;;;;;;;;2111555;28;20487;-72
2022/12/31 08:04:00;;;;;;;4.13;1.50;;;;;;;;;;2112129;28;20036;-71
2022/12/31 08:05:22;;;;;;;6.78;1.65;;;;;;;;;;2099955;28;20508;-71
2022/12/31 08:06:49;;;;;;;4.40;1.60;;;;;;;;;;2098345;28;20036;-71
2022/12/31 08:08:19;;;;;;;5.10;1.30;;;;;;;;;;2108152;28;20031;-71
2022/12/31 08:09:55;;;;;;;7.28;1.30;;;;;;;;;;2111457;28;20119;-71
2022/12/31 08:11:26;;;;;;;7.28;1.58;;;;;;;;;;2112363;28;20475;-72
2022/12/31 08:12:48;;;;;;;7.90;1.60;;;;;;;;;;2110964;28;20408;-71
2022/12/31 08:14:11;;;;;;;9.25;1.58;;;;;;;;;;2111330;28;20024;-72
2022/12/31 08:15:30;;;;;;;5.15;1.85;;;;;;;;;;2109233;28;20036;-72
2022/12/31 08:16:49;;;;;;;3.72;1.30;;;;;;;;;;2109775;28;20040;-71
2022/12/31 08:18:08;;;;;;;6.30;1.50;;;;;;;;;;2110327;28;20027;-71
2022/12/31 08:19:29;;;;;;;8.63;1.50;;;;;;;;;;2101903;28;20103;-72